sensor_id;sensor_type;location;lat;lon;timestamp;pressure;altitude;pressure_sealevel;temperature;humidity
29359;BME280;16347;53.232;6.556;2024-03-22T00:01:43;101913.50;;;10.86;76.46
29359;BME280;16347;53.232;6.556;2024-03-22T00:04:11;101912.84;;;10.93;76.44
29359;BME280;16347;53.232;6.556;2024-03-22T00:06:38;101909.56;;;10.99;76.45
29359;BME280;16347;53.232;6.556;2024-03-22T00:09:04;101912.88;;;11.03;75.88
29359;BME280;16347;53.232;6.556;2024-03-22T00:11:31;101911.19;;;11.11;76.17
29359;BME280;16347;53.232;6.556;2024-03-22T00:13:57;101901.06;;;11.23;75.42
29359;BME280;16347;53.232;6.556;2024-03-22T00:16:24;101895.91;;;11.20;75.35
29359;BME280;16347;53.232;6.556;2024-03-22T00:18:50;101892.78;;;11.24;75.38
29359;BME280;16347;53.232;6.556;2024-03-22T00:21:19;101892.41;;;11.08;75.77
29359;BME280;16347;53.232;6.556;2024-03-22T00:23:45;101898.41;;;11.02;76.38
29359;BME280;16347;53.232;6.556;2024-03-22T00:26:12;101884.09;;;11.00;76.60
29359;BME280;16347;53.232;6.556;2024-03-22T00:28:38;101880.84;;;11.16;75.95
29359;BME280;16347;53.232;6.556;2024-03-22T00:31:05;101868.81;;;11.18;75.60
29359;BME280;16347;53.232;6.556;2024-03-22T00:33:31;101863.25;;;11.20;75.77
29359;BME280;16347;53.232;6.556;2024-03-22T00:35:58;101858.19;;;11.15;76.23
29359;BME280;16347;53.232;6.556;2024-03-22T00:38:25;101852.91;;;11.14;76.08
29359;BME280;16347;53.232;6.556;2024-03-22T00:40:52;101833.91;;;10.93;76.95
29359;BME280;16347;53.232;6.556;2024-03-22T00:43:19;101829.34;;;10.94;76.92
29359;BME280;16347;53.232;6.556;2024-03-22T00:45:46;101829.66;;;11.00;76.95
29359;BME280;16347;53.232;6.556;2024-03-22T00:48:12;101825.47;;;10.96;77.12
29359;BME280;16347;53.232;6.556;2024-03-22T00:50:39;101825.50;;;11.06;77.33
29359;BME280;16347;53.232;6.556;2024-03-22T00:53:05;101812.00;;;10.95;77.28
29359;BME280;16347;53.232;6.556;2024-03-22T00:55:34;101814.50;;;11.07;77.21
29359;BME280;16347;53.232;6.556;2024-03-22T00:58:00;101812.19;;;11.03;77.26
29359;BME280;16347;53.232;6.556;2024-03-22T01:00:28;101808.31;;;11.05;77.68
29359;BME280;16347;53.232;6.556;2024-03-22T01:02:54;101804.13;;;11.01;77.99
29359;BME280;16347;53.232;6.556;2024-03-22T01:05:21;101814.63;;;11.06;77.56
29359;BME280;16347;53.232;6.556;2024-03-22T01:07:47;101808.00;;;10.99;78.37
29359;BME280;16347;53.232;6.556;2024-03-22T01:10:14;101813.63;;;11.07;77.80
29359;BME280;16347;53.232;6.556;2024-03-22T01:12:41;101804.19;;;11.11;77.80
29359;BME280;16347;53.232;6.556;2024-03-22T01:15:08;101797.59;;;11.13;77.95
29359;BME280;16347;53.232;6.556;2024-03-22T01:17:34;101795.47;;;11.17;77.58
29359;BME280;16347;53.232;6.556;2024-03-22T01:20:01;101784.00;;;11.23;77.79
29359;BME280;16347;53.232;6.556;2024-03-22T01:22:27;101787.72;;;11.12;78.18
29359;BME280;16347;53.232;6.556;2024-03-22T01:24:54;101782.84;;;11.16;78.28
29359;BME280;16347;53.232;6.556;2024-03-22T01:27:20;101781.28;;;11.13;78.29
29359;BME280;16347;53.232;6.556;2024-03-22T01:29:49;101772.13;;;11.14;78.18
29359;BME280;16347;53.232;6.556;2024-03-22T01:32:15;101769.25;;;11.16;78.58
29359;BME280;16347;53.232;6.556;2024-03-22T01:34:42;101772.81;;;11.16;78.47
29359;BME280;16347;53.232;6.556;2024-03-22T01:37:08;101781.66;;;10.99;79.27
29359;BME280;16347;53.232;6.556;2024-03-22T01:39:35;101770.78;;;11.09;79.46
29359;BME280;16347;53.232;6.556;2024-03-22T01:42:01;101756.09;;;11.21;79.12
29359;BME280;16347;53.232;6.556;2024-03-22T01:44:28;101754.63;;;11.17;79.25
29359;BME280;16347;53.232;6.556;2024-03-22T01:46:56;101744.03;;;11.14;79.58
29359;BME280;16347;53.232;6.556;2024-03-22T01:49:24;101750.28;;;10.95;80.22
29359;BME280;16347;53.232;6.556;2024-03-22T01:51:50;101747.84;;;11.02;80.42
29359;BME280;16347;53.232;6.556;2024-03-22T01:54:17;101744.63;;;11.17;80.06
29359;BME280;16347;53.232;6.556;2024-03-22T01:56:45;101739.16;;;11.17;80.15
29359;BME280;16347;53.232;6.556;2024-03-22T01:59:12;101736.72;;;11.14;80.05
29359;BME280;16347;53.232;6.556;2024-03-22T02:01:38;101737.03;;;11.21;80.08
29359;BME280;16347;53.232;6.556;2024-03-22T02:04:06;101734.03;;;11.33;80.00
29359;BME280;16347;53.232;6.556;2024-03-22T02:06:32;101728.72;;;11.32;79.75
29359;BME280;16347;53.232;6.556;2024-03-22T02:09:00;101735.03;;;11.32;79.72
29359;BME280;16347;53.232;6.556;2024-03-22T02:11:26;101730.03;;;11.38;79.55
29359;BME280;16347;53.232;6.556;2024-03-22T02:13:54;101722.28;;;11.43;79.57
29359;BME280;16347;53.232;6.556;2024-03-22T02:16:20;101712.09;;;11.54;78.94
29359;BME280;16347;53.232;6.556;2024-03-22T02:18:47;101707.94;;;11.60;78.84
29359;BME280;16347;53.232;6.556;2024-03-22T02:21:14;101702.06;;;11.55;79.36
29359;BME280;16347;53.232;6.556;2024-03-22T02:23:42;101704.06;;;11.43;79.66
29359;BME280;16347;53.232;6.556;2024-03-22T02:26:08;101702.34;;;11.42;79.81
29359;BME280;16347;53.232;6.556;2024-03-22T02:28:35;101694.91;;;11.54;79.73
29359;BME280;16347;53.232;6.556;2024-03-22T02:31:02;101709.22;;;11.56;79.39
29359;BME280;16347;53.232;6.556;2024-03-22T02:33:30;101701.63;;;11.40;80.48
29359;BME280;16347;53.232;6.556;2024-03-22T02:35:56;101686.00;;;11.52;80.70
29359;BME280;16347;53.232;6.556;2024-03-22T02:38:23;101685.56;;;11.66;79.62
29359;BME280;16347;53.232;6.556;2024-03-22T02:40:52;101690.88;;;11.77;79.58
29359;BME280;16347;53.232;6.556;2024-03-22T02:43:19;101690.88;;;11.77;79.16
29359;BME280;16347;53.232;6.556;2024-03-22T02:45:47;101700.34;;;11.73;79.58
29359;BME280;16347;53.232;6.556;2024-03-22T02:48:14;101679.28;;;11.75;79.85
29359;BME280;16347;53.232;6.556;2024-03-22T02:50:41;101693.63;;;11.77;79.40
29359;BME280;16347;53.232;6.556;2024-03-22T02:53:08;101674.09;;;11.72;79.90
29359;BME280;16347;53.232;6.556;2024-03-22T02:55:37;101669.66;;;11.80;80.06
29359;BME280;16347;53.232;6.556;2024-03-22T02:58:06;101669.78;;;11.79;79.91
29359;BME280;16347;53.232;6.556;2024-03-22T03:00:35;101654.19;;;11.81;79.74
29359;BME280;16347;53.232;6.556;2024-03-22T03:03:02;101644.41;;;11.88;79.80
29359;BME280;16347;53.232;6.556;2024-03-22T03:05:29;101636.19;;;11.98;79.52
29359;BME280;16347;53.232;6.556;2024-03-22T03:07:55;101630.53;;;11.81;79.86
29359;BME280;16347;53.232;6.556;2024-03-22T03:10:21;101632.47;;;11.89;79.86
29359;BME280;16347;53.232;6.556;2024-03-22T03:12:49;101630.78;;;11.88;80.05
29359;BME280;16347;53.232;6.556;2024-03-22T03:15:17;101613.88;;;11.85;80.33
29359;BME280;16347;53.232;6.556;2024-03-22T03:17:44;101616.28;;;11.88;80.21
29359;BME280;16347;53.232;6.556;2024-03-22T03:20:11;101622.00;;;11.94;79.76
29359;BME280;16347;53.232;6.556;2024-03-22T03:22:39;101625.91;;;11.92;80.10
29359;BME280;16347;53.232;6.556;2024-03-22T03:25:06;101612.91;;;11.57;81.51
29359;BME280;16347;53.232;6.556;2024-03-22T03:27:33;101610.16;;;11.66;81.81
29359;BME280;16347;53.232;6.556;2024-03-22T03:30:00;101618.78;;;11.71;81.48
29359;BME280;16347;53.232;6.556;2024-03-22T03:32:28;101599.94;;;11.68;81.85
29359;BME280;16347;53.232;6.556;2024-03-22T03:34:54;101605.56;;;11.67;81.82
29359;BME280;16347;53.232;6.556;2024-03-22T03:37:21;101613.72;;;11.67;81.92
29359;BME280;16347;53.232;6.556;2024-03-22T03:39:47;101594.41;;;11.60;82.07
29359;BME280;16347;53.232;6.556;2024-03-22T03:42:14;101604.41;;;11.69;82.16
29359;BME280;16347;53.232;6.556;2024-03-22T03:44:40;101604.28;;;11.80;81.40
29359;BME280;16347;53.232;6.556;2024-03-22T03:47:08;101605.66;;;11.94;80.56
29359;BME280;16347;53.232;6.556;2024-03-22T03:49:35;101595.66;;;11.75;81.29
29359;BME280;16347;53.232;6.556;2024-03-22T03:52:03;101598.94;;;11.79;81.11
29359;BME280;16347;53.232;6.556;2024-03-22T03:54:29;101594.78;;;11.85;81.15
29359;BME280;16347;53.232;6.556;2024-03-22T03:56:56;101592.03;;;11.94;80.66
29359;BME280;16347;53.232;6.556;2024-03-22T03:59:23;101597.78;;;11.91;80.88
29359;BME280;16347;53.232;6.556;2024-03-22T04:01:50;101590.94;;;11.77;81.20
29359;BME280;16347;53.232;6.556;2024-03-22T04:04:16;101604.78;;;11.94;80.59
29359;BME280;16347;53.232;6.556;2024-03-22T04:06:45;101589.13;;;11.96;80.53
29359;BME280;16347;53.232;6.556;2024-03-22T04:09:10;101588.56;;;11.92;80.17
29359;BME280;16347;53.232;6.556;2024-03-22T04:11:37;101595.34;;;11.88;80.74
29359;BME280;16347;53.232;6.556;2024-03-22T04:14:03;101595.38;;;11.78;80.99
29359;BME280;16347;53.232;6.556;2024-03-22T04:16:30;101585.41;;;11.97;80.19
29359;BME280;16347;53.232;6.556;2024-03-22T04:18:57;101593.75;;;11.95;80.18
29359;BME280;16347;53.232;6.556;2024-03-22T04:21:23;101579.28;;;11.95;80.20
29359;BME280;16347;53.232;6.556;2024-03-22T04:23:51;101578.25;;;11.96;80.18
29359;BME280;16347;53.232;6.556;2024-03-22T04:26:18;101570.47;;;12.01;79.68
29359;BME280;16347;53.232;6.556;2024-03-22T04:28:44;101566.53;;;11.86;80.42
29359;BME280;16347;53.232;6.556;2024-03-22T04:31:12;101564.59;;;12.05;79.95
29359;BME280;16347;53.232;6.556;2024-03-22T04:33:38;101557.00;;;11.99;79.67
29359;BME280;16347;53.232;6.556;2024-03-22T04:36:06;101558.34;;;11.95;79.40
29359;BME280;16347;53.232;6.556;2024-03-22T04:38:32;101556.47;;;11.86;80.17
29359;BME280;16347;53.232;6.556;2024-03-22T04:41:00;101555.53;;;11.77;80.83
29359;BME280;16347;53.232;6.556;2024-03-22T04:43:28;101550.63;;;11.81;80.53
29359;BME280;16347;53.232;6.556;2024-03-22T04:45:54;101535.91;;;11.64;81.21
29359;BME280;16347;53.232;6.556;2024-03-22T04:48:22;101537.75;;;11.73;81.08
29359;BME280;16347;53.232;6.556;2024-03-22T04:50:48;101527.38;;;11.87;80.75
29359;BME280;16347;53.232;6.556;2024-03-22T04:53:16;101536.41;;;11.87;80.25
29359;BME280;16347;53.232;6.556;2024-03-22T04:55:42;101533.56;;;11.79;80.53
29359;BME280;16347;53.232;6.556;2024-03-22T04:58:13;101528.59;;;11.74;81.04
29359;BME280;16347;53.232;6.556;2024-03-22T05:00:39;101527.13;;;11.80;80.69
29359;BME280;16347;53.232;6.556;2024-03-22T05:03:06;101520.25;;;11.76;80.13
29359;BME280;16347;53.232;6.556;2024-03-22T05:05:33;101514.91;;;11.84;80.00
29359;BME280;16347;53.232;6.556;2024-03-22T05:08:00;101510.03;;;11.88;79.37
29359;BME280;16347;53.232;6.556;2024-03-22T05:10:26;101511.19;;;11.85;79.74
29359;BME280;16347;53.232;6.556;2024-03-22T05:12:54;101521.22;;;11.85;79.90
29359;BME280;16347;53.232;6.556;2024-03-22T05:15:22;101526.50;;;11.86;79.47
29359;BME280;16347;53.232;6.556;2024-03-22T05:17:51;101538.88;;;11.80;79.66
29359;BME280;16347;53.232;6.556;2024-03-22T05:20:17;101548.47;;;11.85;79.52
29359;BME280;16347;53.232;6.556;2024-03-22T05:22:44;101532.00;;;11.76;79.77
29359;BME280;16347;53.232;6.556;2024-03-22T05:25:10;101524.16;;;11.64;80.58
29359;BME280;16347;53.232;6.556;2024-03-22T05:27:38;101525.38;;;11.79;80.36
29359;BME280;16347;53.232;6.556;2024-03-22T05:30:05;101520.97;;;11.78;79.97
29359;BME280;16347;53.232;6.556;2024-03-22T05:32:34;101535.25;;;11.90;79.67
29359;BME280;16347;53.232;6.556;2024-03-22T05:35:00;101544.16;;;11.82;79.87
29359;BME280;16347;53.232;6.556;2024-03-22T05:37:27;101532.31;;;11.73;80.00
29359;BME280;16347;53.232;6.556;2024-03-22T05:39:54;101494.97;;;11.83;80.19
29359;BME280;16347;53.232;6.556;2024-03-22T05:42:24;101505.38;;;11.98;79.32
29359;BME280;16347;53.232;6.556;2024-03-22T05:44:50;101514.91;;;11.84;79.57
29359;BME280;16347;53.232;6.556;2024-03-22T05:47:18;101530.34;;;11.93;79.15
29359;BME280;16347;53.232;6.556;2024-03-22T05:49:47;101524.47;;;11.98;79.22
29359;BME280;16347;53.232;6.556;2024-03-22T05:52:13;101526.81;;;11.83;79.52
29359;BME280;16347;53.232;6.556;2024-03-22T05:54:41;101516.81;;;11.74;80.32
29359;BME280;16347;53.232;6.556;2024-03-22T05:57:07;101496.28;;;11.70;80.86
29359;BME280;16347;53.232;6.556;2024-03-22T05:59:34;101501.34;;;11.74;80.75
29359;BME280;16347;53.232;6.556;2024-03-22T06:02:00;101501.28;;;11.84;80.90
29359;BME280;16347;53.232;6.556;2024-03-22T06:04:28;101496.44;;;11.78;81.57
29359;BME280;16347;53.232;6.556;2024-03-22T06:06:55;101497.06;;;11.53;82.71
29359;BME280;16347;53.232;6.556;2024-03-22T06:09:25;101498.97;;;11.43;83.19
29359;BME280;16347;53.232;6.556;2024-03-22T06:12:00;101509.03;;;11.32;83.57
29359;BME280;16347;53.232;6.556;2024-03-22T06:14:28;101514.41;;;11.52;83.64
29359;BME280;16347;53.232;6.556;2024-03-22T06:16:54;101498.06;;;11.52;83.42
29359;BME280;16347;53.232;6.556;2024-03-22T06:19:21;101496.09;;;11.54;83.15
29359;BME280;16347;53.232;6.556;2024-03-22T06:21:47;101494.81;;;11.48;83.15
29359;BME280;16347;53.232;6.556;2024-03-22T06:24:15;101489.78;;;11.53;82.99
29359;BME280;16347;53.232;6.556;2024-03-22T06:26:41;101493.06;;;11.57;82.63
29359;BME280;16347;53.232;6.556;2024-03-22T06:29:08;101503.94;;;11.57;82.24
29359;BME280;16347;53.232;6.556;2024-03-22T06:31:34;101510.88;;;11.51;82.54
29359;BME280;16347;53.232;6.556;2024-03-22T06:34:01;101508.28;;;11.50;82.47
29359;BME280;16347;53.232;6.556;2024-03-22T06:36:28;101518.19;;;11.31;82.91
29359;BME280;16347;53.232;6.556;2024-03-22T06:38:55;101497.84;;;11.36;82.91
29359;BME280;16347;53.232;6.556;2024-03-22T06:41:23;101500.47;;;11.27;83.12
29359;BME280;16347;53.232;6.556;2024-03-22T06:43:51;101512.50;;;11.25;82.88
29359;BME280;16347;53.232;6.556;2024-03-22T06:46:17;101492.09;;;11.39;82.62
29359;BME280;16347;53.232;6.556;2024-03-22T06:48:45;101491.25;;;11.48;82.18
29359;BME280;16347;53.232;6.556;2024-03-22T06:51:11;101484.44;;;11.61;81.63
29359;BME280;16347;53.232;6.556;2024-03-22T06:53:37;101494.78;;;11.58;81.47
29359;BME280;16347;53.232;6.556;2024-03-22T06:56:04;101484.88;;;11.57;81.27
29359;BME280;16347;53.232;6.556;2024-03-22T06:58:35;101484.28;;;11.63;81.19
29359;BME280;16347;53.232;6.556;2024-03-22T07:01:02;101476.34;;;11.42;81.90
29359;BME280;16347;53.232;6.556;2024-03-22T07:03:29;101478.88;;;11.53;81.71
29359;BME280;16347;53.232;6.556;2024-03-22T07:05:55;101488.16;;;11.60;81.48
29359;BME280;16347;53.232;6.556;2024-03-22T07:08:23;101472.22;;;11.38;81.35
29359;BME280;16347;53.232;6.556;2024-03-22T07:10:49;101475.66;;;11.30;81.61
29359;BME280;16347;53.232;6.556;2024-03-22T07:13:16;101477.41;;;11.22;81.97
29359;BME280;16347;53.232;6.556;2024-03-22T07:15:45;101479.56;;;11.18;82.11
29359;BME280;16347;53.232;6.556;2024-03-22T07:18:13;101484.16;;;11.18;82.89
29359;BME280;16347;53.232;6.556;2024-03-22T07:20:39;101487.88;;;11.17;83.37
29359;BME280;16347;53.232;6.556;2024-03-22T07:23:06;101470.97;;;11.23;83.54
29359;BME280;16347;53.232;6.556;2024-03-22T07:25:32;101471.97;;;11.22;83.59
29359;BME280;16347;53.232;6.556;2024-03-22T07:27:59;101471.66;;;11.25;83.48
29359;BME280;16347;53.232;6.556;2024-03-22T07:30:25;101470.50;;;11.37;83.58
29359;BME280;16347;53.232;6.556;2024-03-22T07:32:53;101473.13;;;11.19;83.40
29359;BME280;16347;53.232;6.556;2024-03-22T07:35:19;101488.56;;;11.28;84.00
29359;BME280;16347;53.232;6.556;2024-03-22T07:37:46;101470.44;;;11.10;84.61
29359;BME280;16347;53.232;6.556;2024-03-22T07:40:12;101482.03;;;11.02;85.44
29359;BME280;16347;53.232;6.556;2024-03-22T07:42:39;101481.72;;;11.15;86.04
29359;BME280;16347;53.232;6.556;2024-03-22T07:45:06;101476.97;;;11.26;85.48
29359;BME280;16347;53.232;6.556;2024-03-22T07:47:32;101465.25;;;11.16;85.86
29359;BME280;16347;53.232;6.556;2024-03-22T07:50:01;101468.38;;;11.21;85.88
29359;BME280;16347;53.232;6.556;2024-03-22T07:52:27;101480.13;;;11.22;85.81
29359;BME280;16347;53.232;6.556;2024-03-22T07:54:54;101468.38;;;11.31;85.60
29359;BME280;16347;53.232;6.556;2024-03-22T07:57:20;101476.34;;;11.42;85.41
29359;BME280;16347;53.232;6.556;2024-03-22T07:59:49;101483.53;;;11.33;85.44
29359;BME280;16347;53.232;6.556;2024-03-22T08:02:15;101472.06;;;11.40;85.55
29359;BME280;16347;53.232;6.556;2024-03-22T08:04:41;101474.94;;;11.38;85.45
29359;BME280;16347;53.232;6.556;2024-03-22T08:07:09;101465.69;;;11.12;85.58
29359;BME280;16347;53.232;6.556;2024-03-22T08:09:36;101470.00;;;11.14;86.56
29359;BME280;16347;53.232;6.556;2024-03-22T08:12:02;101475.28;;;11.16;86.85
29359;BME280;16347;53.232;6.556;2024-03-22T08:14:29;101466.50;;;11.22;86.48
29359;BME280;16347;53.232;6.556;2024-03-22T08:16:55;101472.59;;;11.06;87.06
29359;BME280;16347;53.232;6.556;2024-03-22T08:19:22;101468.09;;;11.15;86.84
29359;BME280;16347;53.232;6.556;2024-03-22T08:21:48;101466.22;;;11.35;86.47
29359;BME280;16347;53.232;6.556;2024-03-22T08:24:17;101465.78;;;11.29;86.03
29359;BME280;16347;53.232;6.556;2024-03-22T08:26:42;101469.75;;;11.35;85.92
29359;BME280;16347;53.232;6.556;2024-03-22T08:29:12;101471.75;;;11.43;86.10
29359;BME280;16347;53.232;6.556;2024-03-22T08:31:38;101463.75;;;11.41;85.71
29359;BME280;16347;53.232;6.556;2024-03-22T08:34:06;101471.34;;;11.38;85.52
29359;BME280;16347;53.232;6.556;2024-03-22T08:36:32;101476.13;;;11.16;86.47
29359;BME280;16347;53.232;6.556;2024-03-22T08:38:59;101479.16;;;11.13;86.75
29359;BME280;16347;53.232;6.556;2024-03-22T08:41:26;101471.72;;;11.06;87.33
29359;BME280;16347;53.232;6.556;2024-03-22T08:43:53;101463.97;;;11.01;87.80
29359;BME280;16347;53.232;6.556;2024-03-22T08:46:19;101463.50;;;11.25;87.80
29359;BME280;16347;53.232;6.556;2024-03-22T08:48:48;101466.59;;;11.40;86.78
29359;BME280;16347;53.232;6.556;2024-03-22T08:51:15;101453.50;;;11.53;86.40
29359;BME280;16347;53.232;6.556;2024-03-22T08:53:42;101464.31;;;11.35;86.06
29359;BME280;16347;53.232;6.556;2024-03-22T08:56:07;101467.06;;;11.25;86.53
29359;BME280;16347;53.232;6.556;2024-03-22T08:58:36;101465.47;;;11.32;86.80
29359;BME280;16347;53.232;6.556;2024-03-22T09:01:02;101464.31;;;11.35;86.27
29359;BME280;16347;53.232;6.556;2024-03-22T09:03:30;101464.88;;;11.39;86.24
29359;BME280;16347;53.232;6.556;2024-03-22T09:05:56;101465.00;;;11.47;86.08
29359;BME280;16347;53.232;6.556;2024-03-22T09:08:23;101463.88;;;11.40;85.99
29359;BME280;16347;53.232;6.556;2024-03-22T09:10:49;101456.72;;;11.39;86.26
29359;BME280;16347;53.232;6.556;2024-03-22T09:13:16;101459.84;;;11.44;85.88
29359;BME280;16347;53.232;6.556;2024-03-22T09:15:43;101463.88;;;11.40;85.88
29359;BME280;16347;53.232;6.556;2024-03-22T09:18:10;101461.28;;;11.48;85.83
29359;BME280;16347;53.232;6.556;2024-03-22T09:20:36;101460.94;;;11.60;85.85
29359;BME280;16347;53.232;6.556;2024-03-22T09:23:03;101458.78;;;11.64;85.16
29359;BME280;16347;53.232;6.556;2024-03-22T09:25:29;101465.13;;;11.55;84.97
29359;BME280;16347;53.232;6.556;2024-03-22T09:27:56;101459.63;;;11.64;84.98
29359;BME280;16347;53.232;6.556;2024-03-22T09:30:22;101458.88;;;11.45;85.18
29359;BME280;16347;53.232;6.556;2024-03-22T09:32:51;101463.69;;;11.51;85.49
29359;BME280;16347;53.232;6.556;2024-03-22T09:35:17;101477.63;;;11.48;85.60
29359;BME280;16347;53.232;6.556;2024-03-22T09:37:45;101473.91;;;11.39;85.82
29359;BME280;16347;53.232;6.556;2024-03-22T09:40:11;101467.16;;;11.43;85.73
29359;BME280;16347;53.232;6.556;2024-03-22T09:42:41;101461.13;;;11.49;85.59
29359;BME280;16347;53.232;6.556;2024-03-22T09:45:08;101473.00;;;11.58;84.98
29359;BME280;16347;53.232;6.556;2024-03-22T09:47:37;101466.34;;;11.33;86.00
29359;BME280;16347;53.232;6.556;2024-03-22T09:50:06;101467.16;;;11.43;85.99
29359;BME280;16347;53.232;6.556;2024-03-22T09:52:35;101474.16;;;11.46;85.31
29359;BME280;16347;53.232;6.556;2024-03-22T09:55:05;101479.94;;;11.70;85.47
29359;BME280;16347;53.232;6.556;2024-03-22T09:57:34;101475.16;;;11.54;85.25
29359;BME280;16347;53.232;6.556;2024-03-22T10:00:06;101482.34;;;11.46;85.45
29359;BME280;16347;53.232;6.556;2024-03-22T10:02:38;101473.78;;;11.41;85.71
29359;BME280;16347;53.232;6.556;2024-03-22T10:05:07;101468.94;;;11.35;85.90
29359;BME280;16347;53.232;6.556;2024-03-22T10:07:34;101475.16;;;11.54;85.39
29359;BME280;16347;53.232;6.556;2024-03-22T10:10:01;101461.84;;;11.51;84.75
29359;BME280;16347;53.232;6.556;2024-03-22T10:12:29;101475.34;;;11.43;85.17
29359;BME280;16347;53.232;6.556;2024-03-22T10:14:55;101464.66;;;11.59;85.35
29359;BME280;16347;53.232;6.556;2024-03-22T10:17:22;101466.56;;;11.49;85.00
29359;BME280;16347;53.232;6.556;2024-03-22T10:19:52;101473.38;;;11.63;84.97
29359;BME280;16347;53.232;6.556;2024-03-22T10:22:21;101473.03;;;11.39;85.10
29359;BME280;16347;53.232;6.556;2024-03-22T10:24:47;101475.91;;;11.47;85.12
29359;BME280;16347;53.232;6.556;2024-03-22T10:27:14;101471.97;;;11.59;84.92
29359;BME280;16347;53.232;6.556;2024-03-22T10:29:40;101475.81;;;11.66;84.79
29359;BME280;16347;53.232;6.556;2024-03-22T10:32:08;101468.78;;;11.73;84.71
29359;BME280;16347;53.232;6.556;2024-03-22T10:34:35;101465.69;;;11.58;84.42
29359;BME280;16347;53.232;6.556;2024-03-22T10:37:03;101466.31;;;11.43;84.44
29359;BME280;16347;53.232;6.556;2024-03-22T10:39:31;101467.75;;;11.37;85.21
29359;BME280;16347;53.232;6.556;2024-03-22T10:41:58;101464.56;;;11.51;85.10
29359;BME280;16347;53.232;6.556;2024-03-22T10:44:24;101470.59;;;11.45;84.69
29359;BME280;16347;53.232;6.556;2024-03-22T10:46:55;101477.41;;;11.59;85.11
29359;BME280;16347;53.232;6.556;2024-03-22T10:49:24;101475.66;;;11.77;84.16
29359;BME280;16347;53.232;6.556;2024-03-22T10:51:56;101465.56;;;11.50;84.26
29359;BME280;16347;53.232;6.556;2024-03-22T10:54:26;101474.81;;;11.67;84.61
29359;BME280;16347;53.232;6.556;2024-03-22T10:56:56;101467.31;;;11.78;84.18
29359;BME280;16347;53.232;6.556;2024-03-22T10:59:23;101458.88;;;11.72;83.59
29359;BME280;16347;53.232;6.556;2024-03-22T11:01:51;101459.31;;;11.77;83.63
29359;BME280;16347;53.232;6.556;2024-03-22T11:04:19;101461.84;;;11.78;83.22
29359;BME280;16347;53.232;6.556;2024-03-22T11:06:48;101453.31;;;11.64;84.17
29359;BME280;16347;53.232;6.556;2024-03-22T11:09:19;101461.47;;;11.37;84.91
29359;BME280;16347;53.232;6.556;2024-03-22T11:11:48;101445.81;;;11.48;84.82
29359;BME280;16347;53.232;6.556;2024-03-22T11:14:18;101446.00;;;11.64;84.49
29359;BME280;16347;53.232;6.556;2024-03-22T11:16:46;101448.25;;;11.78;84.11
29359;BME280;16347;53.232;6.556;2024-03-22T11:19:12;101443.44;;;11.90;83.67
29359;BME280;16347;53.232;6.556;2024-03-22T11:21:39;101441.91;;;11.88;82.75
29359;BME280;16347;53.232;6.556;2024-03-22T11:24:06;101443.41;;;11.72;82.92
29359;BME280;16347;53.232;6.556;2024-03-22T11:26:32;101438.16;;;11.61;83.22
29359;BME280;16347;53.232;6.556;2024-03-22T11:28:59;101439.44;;;11.57;83.57
29359;BME280;16347;53.232;6.556;2024-03-22T11:31:28;101439.88;;;11.53;83.97
29359;BME280;16347;53.232;6.556;2024-03-22T11:33:54;101443.25;;;11.37;84.28
29359;BME280;16347;53.232;6.556;2024-03-22T11:36:22;101436.34;;;11.43;84.53
29359;BME280;16347;53.232;6.556;2024-03-22T11:38:48;101434.44;;;11.53;84.26
29359;BME280;16347;53.232;6.556;2024-03-22T11:41:17;101439.28;;;11.59;83.82
29359;BME280;16347;53.232;6.556;2024-03-22T11:43:44;101432.13;;;11.58;84.01
29359;BME280;16347;53.232;6.556;2024-03-22T11:46:13;101438.44;;;11.58;83.87
29359;BME280;16347;53.232;6.556;2024-03-22T11:48:41;101430.53;;;11.65;83.47
29359;BME280;16347;53.232;6.556;2024-03-22T11:51:10;101428.13;;;11.52;83.38
29359;BME280;16347;53.232;6.556;2024-03-22T11:53:36;101427.81;;;11.55;83.64
29359;BME280;16347;53.232;6.556;2024-03-22T11:56:05;101434.94;;;11.39;83.54
29359;BME280;16347;53.232;6.556;2024-03-22T11:58:33;101423.81;;;11.59;83.10
29359;BME280;16347;53.232;6.556;2024-03-22T12:01:01;101426.28;;;11.53;82.24
29359;BME280;16347;53.232;6.556;2024-03-22T12:03:28;101432.03;;;11.50;81.60
29359;BME280;16347;53.232;6.556;2024-03-22T12:05:57;101441.97;;;11.41;81.62
29359;BME280;16347;53.232;6.556;2024-03-22T12:08:23;101438.81;;;11.36;81.37
29359;BME280;16347;53.232;6.556;2024-03-22T12:10:50;101431.94;;;11.32;80.72
29359;BME280;16347;53.232;6.556;2024-03-22T12:13:16;101427.00;;;11.45;80.76
29359;BME280;16347;53.232;6.556;2024-03-22T12:15:43;101428.38;;;11.59;80.59
29359;BME280;16347;53.232;6.556;2024-03-22T12:18:11;101416.19;;;11.63;79.13
29359;BME280;16347;53.232;6.556;2024-03-22T12:20:38;101432.69;;;11.71;78.94
29359;BME280;16347;53.232;6.556;2024-03-22T12:23:06;101426.44;;;11.78;78.57
29359;BME280;16347;53.232;6.556;2024-03-22T12:25:34;101421.41;;;11.83;78.39
29359;BME280;16347;53.232;6.556;2024-03-22T12:28:02;101416.63;;;11.95;78.50
29359;BME280;16347;53.232;6.556;2024-03-22T12:30:30;101413.72;;;11.97;78.32
29359;BME280;16347;53.232;6.556;2024-03-22T12:32:58;101415.81;;;12.03;78.51
29359;BME280;16347;53.232;6.556;2024-03-22T12:35:24;101413.78;;;11.87;78.32
29359;BME280;16347;53.232;6.556;2024-03-22T12:37:51;101408.44;;;11.95;78.32
29359;BME280;16347;53.232;6.556;2024-03-22T12:40:19;101405.16;;;11.92;78.10
29359;BME280;16347;53.232;6.556;2024-03-22T12:42:46;101409.28;;;11.96;78.08
29359;BME280;16347;53.232;6.556;2024-03-22T12:45:13;101419.13;;;11.79;77.53
29359;BME280;16347;53.232;6.556;2024-03-22T12:47:39;101407.13;;;11.72;78.18
29359;BME280;16347;53.232;6.556;2024-03-22T12:50:07;101418.78;;;11.64;78.11